createdAt,value
2023-03-08T00:01:24.880Z,96370.92
2023-03-08T00:03:58.110Z,96371.47
2023-03-08T00:06:27.514Z,96370.40
2023-03-08T00:09:01.003Z,96369.54
2023-03-08T00:11:29.848Z,96373.78
2023-03-08T00:13:58.014Z,96372.69
2023-03-08T00:16:25.997Z,96367.61
2023-03-08T00:18:54.947Z,96368.10
2023-03-08T00:21:24.943Z,96366.45
2023-03-08T00:23:53.964Z,96363.02
2023-03-08T00:26:21.673Z,96362.70
2023-03-08T00:28:49.700Z,96354.44
2023-03-08T00:31:17.408Z,96350.51
2023-03-08T00:33:46.134Z,96351.55
2023-03-08T00:36:18.362Z,96347.02
2023-03-08T00:38:47.675Z,96345.38
2023-03-08T00:41:15.494Z,96338.44
2023-03-08T00:43:43.182Z,96333.91
2023-03-08T00:46:12.156Z,96326.39
2023-03-08T00:48:40.466Z,96329.31
2023-03-08T00:51:15.353Z,96325.55
2023-03-08T00:53:43.134Z,96307.55
2023-03-08T00:56:11.806Z,96321.25
2023-03-08T00:58:40.992Z,96315.47
2023-03-08T01:01:13.247Z,96314.69
2023-03-08T01:03:41.040Z,96310.44
2023-03-08T01:06:12.878Z,96310.21
2023-03-08T01:08:42.354Z,96300.12
2023-03-08T01:11:22.345Z,96305.73
2023-03-08T01:13:51.396Z,96300.18
2023-03-08T01:16:27.311Z,96301.05
2023-03-08T01:18:56.104Z,96301.28
2023-03-08T01:21:24.882Z,96302.06
2023-03-08T01:23:53.735Z,96296.19
2023-03-08T01:26:26.848Z,96295.36
2023-03-08T01:28:58.156Z,96293.77
2023-03-08T01:31:29.089Z,96296.55
2023-03-08T01:33:58.090Z,96291.45
2023-03-08T01:36:28.448Z,96288.45
2023-03-08T01:38:56.634Z,96291.58
2023-03-08T01:41:28.704Z,96288.08
2023-03-08T01:43:57.335Z,96300.50
2023-03-08T01:46:35.836Z,96300.77
2023-03-08T01:49:29.851Z,96296.45
2023-03-08T01:52:16.216Z,96297.78
2023-03-08T01:54:54.976Z,96290.04
2023-03-08T01:57:42.060Z,96296.40
2023-03-08T02:00:20.633Z,96295.02
2023-03-08T02:03:05.682Z,96293.91
2023-03-08T02:05:38.946Z,96297.17
2023-03-08T02:08:08.804Z,96298.51
2023-03-08T02:10:38.595Z,96306.48
2023-03-08T02:13:07.709Z,96307.27
2023-03-08T02:15:37.282Z,96302.73
2023-03-08T02:18:06.012Z,96303.22
2023-03-08T02:20:40.319Z,96304.00
2023-03-08T02:23:23.293Z,96307.93
2023-03-08T02:26:03.618Z,96296.80
2023-03-08T02:28:32.560Z,96299.00
2023-03-08T02:31:00.364Z,96291.80
2023-03-08T02:33:30.019Z,96281.16
2023-03-08T02:35:58.545Z,96281.16
2023-03-08T02:38:27.567Z,96278.73
2023-03-08T02:40:55.699Z,96276.63
2023-03-08T02:43:23.790Z,96270.64
2023-03-08T02:45:51.736Z,96265.41
2023-03-08T02:48:20.639Z,96273.91
2023-03-08T02:50:48.548Z,96262.50
2023-03-08T02:53:16.424Z,96255.62
2023-03-08T02:55:45.419Z,96252.41
2023-03-08T02:58:13.474Z,96250.07
2023-03-08T03:00:41.105Z,96249.58
2023-03-08T03:03:08.939Z,96248.57
2023-03-08T03:05:43.014Z,96249.91
2023-03-08T03:08:12.796Z,96246.14
2023-03-08T03:10:41.333Z,96242.94
2023-03-08T03:13:09.221Z,96242.61
2023-03-08T03:15:39.992Z,96244.75
2023-03-08T03:18:07.864Z,96243.94
2023-03-08T03:20:35.591Z,96245.82
2023-03-08T03:23:03.221Z,96253.80
2023-03-08T03:25:37.474Z,96250.59
2023-03-08T03:28:06.317Z,96247.64
2023-03-08T03:30:34.628Z,96264.61
2023-03-08T03:33:02.128Z,96274.89
2023-03-08T03:35:31.353Z,96270.81
2023-03-08T03:37:59.223Z,96277.72
2023-03-08T03:40:27.196Z,96282.41
2023-03-08T03:42:56.851Z,96288.99
2023-03-08T03:45:25.144Z,96282.83
2023-03-08T03:47:53.936Z,96283.55
2023-03-08T03:50:21.858Z,96286.67
2023-03-08T03:52:51.599Z,96295.92
2023-03-08T03:55:19.554Z,96309.95
2023-03-08T03:57:47.864Z,96310.66
2023-03-08T04:00:17.830Z,96318.09
2023-03-08T04:02:47.409Z,96308.78
2023-03-08T04:05:16.424Z,96303.23
2023-03-08T04:07:45.932Z,96306.35
2023-03-08T04:10:14.232Z,96309.56
2023-03-08T04:12:42.735Z,96304.56
2023-03-08T04:15:10.859Z,96310.95
2023-03-08T04:17:38.713Z,96316.05
2023-03-08T04:20:08.663Z,96317.70
2023-03-08T04:22:38.297Z,96320.09
2023-03-08T04:25:11.059Z,96323.30
2023-03-08T04:27:40.635Z,96326.19
2023-03-08T04:30:11.401Z,96327.00
2023-03-08T04:32:39.440Z,96321.69
2023-03-08T04:35:08.761Z,96303.13
2023-03-08T04:37:38.529Z,96312.81
2023-03-08T04:40:09.674Z,96315.77
2023-03-08T04:42:40.575Z,96317.33
2023-03-08T04:45:09.654Z,96322.91
2023-03-08T04:47:37.423Z,96329.23
2023-03-08T04:50:05.944Z,96335.59
2023-03-08T04:52:34.223Z,96334.72
2023-03-08T04:55:02.193Z,96340.53
2023-03-08T04:57:31.505Z,96339.67
2023-03-08T04:59:59.917Z,96335.67
2023-03-08T05:02:27.711Z,96326.91
2023-03-08T05:04:55.470Z,96329.66
2023-03-08T05:07:23.218Z,96326.69
2023-03-08T05:09:51.768Z,96328.80
2023-03-08T05:12:22.177Z,96331.16
2023-03-08T05:14:56.940Z,96323.97
2023-03-08T05:17:25.486Z,96325.76
2023-03-08T05:19:53.689Z,96328.13
2023-03-08T05:22:23.346Z,96321.70
2023-03-08T05:24:52.224Z,96315.05
2023-03-08T05:27:20.220Z,96319.05
2023-03-08T05:29:48.362Z,96317.48
2023-03-08T05:32:17.743Z,96325.20
2023-03-08T05:34:46.048Z,96332.12
2023-03-08T05:37:16.837Z,96328.91
2023-03-08T05:39:48.323Z,96325.92
2023-03-08T05:42:19.335Z,96326.70
2023-03-08T05:44:50.696Z,96328.30
2023-03-08T05:47:20.837Z,96326.36
2023-03-08T05:49:48.491Z,96334.51
2023-03-08T05:52:16.601Z,96341.84
2023-03-08T05:54:49.886Z,96342.89
2023-03-08T05:57:20.382Z,96343.67
2023-03-08T05:59:48.710Z,96346.27
2023-03-08T06:02:18.591Z,96354.42
2023-03-08T06:04:48.348Z,96352.77
2023-03-08T06:07:17.707Z,96363.91
2023-03-08T06:09:47.140Z,96374.00
2023-03-08T06:12:16.499Z,96373.39
2023-03-08T06:14:45.427Z,96364.80
2023-03-08T06:17:14.112Z,96363.86
2023-03-08T06:19:43.732Z,96359.97
2023-03-08T06:22:16.918Z,96360.85
2023-03-08T06:24:49.277Z,96363.53
2023-03-08T06:27:19.068Z,96368.95
2023-03-08T06:29:48.613Z,96374.90
2023-03-08T06:32:17.886Z,96377.37
2023-03-08T06:34:47.600Z,96378.77
2023-03-08T06:37:16.400Z,96371.64
2023-03-08T06:39:44.554Z,96369.62
2023-03-08T06:42:12.772Z,96373.16
2023-03-08T06:44:40.578Z,96374.48
2023-03-08T06:47:08.469Z,96385.23
2023-03-08T06:49:36.523Z,96385.63
2023-03-08T06:52:04.931Z,96392.70
2023-03-08T06:54:33.270Z,96381.64
2023-03-08T06:57:04.213Z,96381.24
2023-03-08T06:59:32.959Z,96386.41
2023-03-08T07:02:00.782Z,96383.89
2023-03-08T07:04:29.535Z,96385.53
2023-03-08T07:06:58.995Z,96385.94
2023-03-08T07:09:26.806Z,96388.98
2023-03-08T07:11:55.215Z,96394.41
2023-03-08T07:14:23.242Z,96390.47
2023-03-08T07:16:53.064Z,96401.97
2023-03-08T07:19:20.860Z,96400.97
2023-03-08T07:21:48.717Z,96412.95
2023-03-08T07:24:16.338Z,96413.24
2023-03-08T07:26:43.954Z,96425.70
2023-03-08T07:29:11.800Z,96426.22
2023-03-08T07:31:39.906Z,96429.46
2023-03-08T07:34:07.889Z,96432.31
2023-03-08T07:36:35.856Z,96435.44
2023-03-08T07:39:03.738Z,96431.95
2023-03-08T07:41:32.728Z,96428.44
2023-03-08T07:44:01.783Z,96436.18
2023-03-08T07:46:30.263Z,96443.28
2023-03-08T07:48:58.279Z,96441.00
2023-03-08T07:51:26.395Z,96439.94
2023-03-08T07:53:53.832Z,96440.98
2023-03-08T07:56:21.493Z,96450.14
2023-03-08T07:58:49.168Z,96441.17
2023-03-08T08:01:16.951Z,96442.00
2023-03-08T08:03:44.877Z,96450.59
2023-03-08T08:06:12.604Z,96448.52
2023-03-08T08:08:40.706Z,96443.86
2023-03-08T08:11:14.811Z,96443.95
2023-03-08T08:13:43.222Z,96444.86
2023-03-08T08:16:11.673Z,96454.14
2023-03-08T08:18:39.729Z,96456.30
2023-03-08T08:21:10.993Z,96453.32
2023-03-08T08:23:39.804Z,96457.13
2023-03-08T08:26:12.588Z,96450.34
2023-03-08T08:28:42.772Z,96450.69
2023-03-08T08:31:16.248Z,96448.83
2023-03-08T08:33:44.359Z,96449.36
2023-03-08T08:36:16.649Z,96450.60
2023-03-08T08:38:48.215Z,96455.77
2023-03-08T08:41:20.068Z,96459.58
2023-03-08T08:43:48.323Z,96454.56
2023-03-08T08:46:17.035Z,96457.15
2023-03-08T08:48:44.741Z,96455.94
2023-03-08T08:51:14.198Z,96455.94
2023-03-08T08:53:43.600Z,96456.50
2023-03-08T08:56:28.069Z,96449.33
2023-03-08T08:58:48.602Z,96439.71
2023-03-08T09:01:23.135Z,96442.66
2023-03-08T09:03:51.366Z,96446.15
2023-03-08T09:06:22.266Z,96444.00
2023-03-08T09:08:56.416Z,96434.45
2023-03-08T09:11:27.117Z,96445.53
2023-03-08T09:13:55.085Z,96442.23
2023-03-08T09:16:26.768Z,96442.70
2023-03-08T09:18:56.726Z,96449.11
2023-03-08T09:21:26.219Z,96448.63
2023-03-08T09:23:55.937Z,96452.38
2023-03-08T09:26:24.225Z,96451.81
2023-03-08T09:28:52.476Z,96451.89
2023-03-08T09:31:20.565Z,96464.13
2023-03-08T09:33:54.088Z,96464.63
2023-03-08T09:36:22.647Z,96459.29
2023-03-08T09:38:52.412Z,96459.46
2023-03-08T09:41:37.598Z,96461.34
2023-03-08T09:44:31.879Z,96460.78
2023-03-08T09:47:28.976Z,96471.53
2023-03-08T09:50:04.865Z,96467.78
2023-03-08T09:52:39.975Z,96461.30
2023-03-08T09:55:30.306Z,96456.50
2023-03-08T09:58:05.892Z,96451.23
2023-03-08T10:00:35.865Z,96445.91
2023-03-08T10:03:37.841Z,96435.89
2023-03-08T10:06:29.739Z,96438.02
2023-03-08T10:09:09.074Z,96437.58
2023-03-08T10:11:57.690Z,96443.64
2023-03-08T10:14:48.926Z,96437.84
2023-03-08T10:17:28.205Z,96435.46
2023-03-08T10:20:08.462Z,96434.67
2023-03-08T10:22:38.123Z,96446.17
2023-03-08T10:25:30.476Z,96446.11
2023-03-08T10:28:03.653Z,96441.01
2023-03-08T10:30:36.718Z,96436.91
2023-03-08T10:33:10.016Z,96433.45
2023-03-08T10:35:58.456Z,96418.75
2023-03-08T10:38:31.063Z,96410.68
2023-03-08T10:41:09.437Z,96405.13
2023-03-08T10:43:42.663Z,96398.61
2023-03-08T10:46:21.516Z,96396.33
2023-03-08T10:48:52.202Z,96397.59
2023-03-08T10:51:32.099Z,96395.14
2023-03-08T10:54:04.428Z,96392.62
2023-03-08T10:56:46.301Z,96392.05
2023-03-08T10:59:35.042Z,96398.13
2023-03-08T11:02:20.910Z,96392.02
2023-03-08T11:04:55.742Z,96386.09
2023-03-08T11:07:31.070Z,96383.48
2023-03-08T11:10:11.316Z,96384.10
2023-03-08T11:12:40.585Z,96377.77
2023-03-08T11:15:17.710Z,96373.39
2023-03-08T11:18:26.298Z,96376.61
2023-03-08T11:21:03.488Z,96373.28
2023-03-08T11:23:46.293Z,96369.62
2023-03-08T11:27:01.996Z,96364.62
2023-03-08T11:29:39.108Z,96352.33
2023-03-08T11:32:32.296Z,96344.14
2023-03-08T11:35:24.924Z,96344.59
2023-03-08T11:38:27.376Z,96333.55
2023-03-08T11:41:19.427Z,96341.02
2023-03-08T11:44:05.403Z,96344.44
2023-03-08T11:47:10.894Z,96339.56
2023-03-08T11:50:20.910Z,96337.53
2023-03-08T11:53:24.293Z,96328.22
2023-03-08T11:56:26.714Z,96339.82
2023-03-08T11:59:02.706Z,96337.27
2023-03-08T12:01:42.135Z,96337.36
2023-03-08T12:04:34.129Z,96334.27
2023-03-08T12:07:08.380Z,96335.55
2023-03-08T12:09:42.718Z,96336.84
2023-03-08T12:12:25.087Z,96344.16
2023-03-08T12:14:57.680Z,96334.50
2023-03-08T12:17:34.567Z,96334.67
2023-03-08T12:20:05.646Z,96332.83
2023-03-08T12:23:02.383Z,96338.94
2023-03-08T12:25:38.711Z,96339.51
2023-03-08T12:28:25.738Z,96332.63
2023-03-08T12:31:28.685Z,96338.33
2023-03-08T12:33:59.136Z,96333.99
2023-03-08T12:36:44.369Z,96337.20
2023-03-08T12:39:34.701Z,96335.08
2023-03-08T12:42:15.935Z,96332.58
2023-03-08T12:44:44.696Z,96329.61
2023-03-08T12:47:18.036Z,96332.70
2023-03-08T12:49:57.853Z,96337.69
2023-03-08T12:52:34.284Z,96338.98
2023-03-08T12:55:23.895Z,96348.55
2023-03-08T12:57:57.460Z,96359.06
2023-03-08T13:00:35.422Z,96362.47
2023-03-08T13:03:16.018Z,96361.62
2023-03-08T13:05:46.416Z,96364.53
2023-03-08T13:08:37.145Z,96363.18
2023-03-08T13:11:10.601Z,96366.45
2023-03-08T13:14:02.147Z,96371.27
2023-03-08T13:16:35.545Z,96380.42
2023-03-08T13:19:17.965Z,96366.38
2023-03-08T13:22:10.588Z,96367.97
2023-03-08T13:24:59.662Z,96363.86
2023-03-08T13:27:39.016Z,96364.49
2023-03-08T13:30:24.145Z,96363.98
2023-03-08T13:32:52.793Z,96366.61
2023-03-08T13:35:21.730Z,96365.97
2023-03-08T13:38:00.337Z,96362.87
2023-03-08T13:40:30.727Z,96361.66
2023-03-08T13:43:05.870Z,96363.34
2023-03-08T13:45:33.766Z,96365.05
2023-03-08T13:48:07.183Z,96368.88
2023-03-08T13:50:47.469Z,96373.63
2023-03-08T13:53:24.999Z,96380.20
2023-03-08T13:55:57.245Z,96382.38
2023-03-08T13:58:41.367Z,96374.94
2023-03-08T14:01:22.293Z,96385.78
2023-03-08T14:03:52.889Z,96383.34
2023-03-08T14:06:30.590Z,96379.16
2023-03-08T14:09:01.589Z,96378.42
2023-03-08T14:11:34.831Z,96370.41
2023-03-08T14:14:08.251Z,96377.98
2023-03-08T14:16:41.941Z,96378.23
2023-03-08T14:19:27.401Z,96370.08
2023-03-08T14:22:05.862Z,96367.47
2023-03-08T14:24:37.350Z,96361.73
2023-03-08T14:27:20.000Z,96358.55
2023-03-08T14:29:48.001Z,96353.51
2023-03-08T14:32:29.461Z,96354.35
2023-03-08T14:35:17.315Z,96352.56
2023-03-08T14:37:47.575Z,96354.03
2023-03-08T14:40:35.166Z,96350.16
2023-03-08T14:43:10.370Z,96348.72
2023-03-08T14:45:52.398Z,96353.66
2023-03-08T14:48:25.536Z,96355.48
2023-03-08T14:51:07.345Z,96358.86
2023-03-08T14:53:39.155Z,96364.23
2023-03-08T14:56:17.014Z,96354.05
2023-03-08T14:58:50.179Z,96353.92
2023-03-08T15:01:30.777Z,96353.77
2023-03-08T15:03:58.819Z,96352.52
2023-03-08T15:06:34.122Z,96356.22
2023-03-08T15:09:07.307Z,96356.78
2023-03-08T15:11:36.225Z,96353.73
2023-03-08T15:14:04.512Z,96345.11
2023-03-08T15:16:32.524Z,96350.36
2023-03-08T15:19:01.258Z,96344.42
2023-03-08T15:21:31.130Z,96347.55
2023-03-08T15:24:00.508Z,96347.31
2023-03-08T15:26:31.353Z,96346.33
2023-03-08T15:29:02.290Z,96345.31
2023-03-08T15:31:31.596Z,96346.03
2023-03-08T15:34:21.000Z,96343.47
2023-03-08T15:36:51.310Z,96348.55
2023-03-08T15:39:19.976Z,96350.70
2023-03-08T15:41:48.733Z,96352.08
2023-03-08T15:44:16.837Z,96351.34
2023-03-08T15:46:44.889Z,96352.86
2023-03-08T15:49:12.826Z,96353.45
2023-03-08T15:51:42.236Z,96353.84
2023-03-08T15:54:12.071Z,96355.00
2023-03-08T15:56:40.011Z,96355.13
2023-03-08T15:59:07.862Z,96363.35
2023-03-08T16:01:40.511Z,96358.47
2023-03-08T16:04:08.595Z,96361.38
2023-03-08T16:06:47.467Z,96361.66
2023-03-08T16:09:20.548Z,96372.19
2023-03-08T16:11:56.980Z,96374.66
2023-03-08T16:14:25.023Z,96374.13
2023-03-08T16:16:53.583Z,96375.23
2023-03-08T16:19:21.496Z,96382.75
2023-03-08T16:21:52.470Z,96385.79
2023-03-08T16:24:24.485Z,96387.13
2023-03-08T16:26:55.321Z,96388.47
2023-03-08T16:29:23.832Z,96393.61
2023-03-08T16:31:53.105Z,96406.98
2023-03-08T16:34:22.018Z,96411.45
2023-03-08T16:36:51.591Z,96415.70
2023-03-08T16:39:20.937Z,96418.03
2023-03-08T16:41:49.419Z,96415.92
2023-03-08T16:44:28.785Z,96420.61
2023-03-08T16:46:56.980Z,96428.63
2023-03-08T16:49:26.906Z,96437.42
2023-03-08T16:51:57.186Z,96435.75
2023-03-08T16:54:24.930Z,96434.17
2023-03-08T16:56:52.866Z,96445.89
2023-03-08T16:59:21.116Z,96452.56
2023-03-08T17:01:49.637Z,96457.33
2023-03-08T17:04:19.058Z,96460.45
2023-03-08T17:06:47.661Z,96464.44
2023-03-08T17:09:16.144Z,96464.31
2023-03-08T17:11:45.688Z,96464.62
2023-03-08T17:14:14.741Z,96474.72
2023-03-08T17:16:43.113Z,96474.47
2023-03-08T17:19:16.229Z,96475.67
2023-03-08T17:21:44.550Z,96476.66
2023-03-08T17:24:14.844Z,96473.86
2023-03-08T17:26:47.497Z,96472.92
2023-03-08T17:29:15.939Z,96470.67
2023-03-08T17:31:43.786Z,96466.86
2023-03-08T17:34:12.310Z,96471.05
2023-03-08T17:36:40.212Z,96475.44
2023-03-08T17:39:08.836Z,96468.21
2023-03-08T17:41:38.066Z,96464.69
2023-03-08T17:44:05.773Z,96462.38
2023-03-08T17:46:33.558Z,96447.63
2023-03-08T17:49:01.132Z,96449.37
2023-03-08T17:51:33.914Z,96444.45
2023-03-08T17:54:02.784Z,96439.74
2023-03-08T17:56:36.190Z,96438.98
2023-03-08T17:59:09.475Z,96442.79
2023-03-08T18:01:43.314Z,96446.43
2023-03-08T18:04:14.189Z,96447.25
2023-03-08T18:06:44.625Z,96448.05
2023-03-08T18:09:16.131Z,96449.53
2023-03-08T18:11:48.307Z,96448.05
2023-03-08T18:14:26.219Z,96454.66
2023-03-08T18:16:50.880Z,96455.70
2023-03-08T18:19:19.356Z,96449.20
2023-03-08T18:21:49.970Z,96451.80
2023-03-08T18:24:27.236Z,96447.41
2023-03-08T18:26:57.805Z,96446.16
2023-03-08T18:29:28.328Z,96453.00
2023-03-08T18:31:57.065Z,96456.30
2023-03-08T18:34:28.466Z,96449.47
2023-03-08T18:36:58.456Z,96450.17
2023-03-08T18:39:28.592Z,96443.58
2023-03-08T18:42:00.791Z,96437.79
2023-03-08T18:44:30.034Z,96432.75
2023-03-08T18:46:59.594Z,96433.53
2023-03-08T18:49:27.416Z,96429.00
2023-03-08T18:51:59.038Z,96430.56
2023-03-08T18:54:27.253Z,96434.50
2023-03-08T18:56:56.279Z,96436.61
2023-03-08T18:59:28.703Z,96446.73
2023-03-08T19:01:56.739Z,96440.61
2023-03-08T19:04:26.073Z,96437.61
2023-03-08T19:06:56.729Z,96430.64
2023-03-08T19:09:26.865Z,96429.21
2023-03-08T19:11:54.843Z,96427.09
2023-03-08T19:14:28.575Z,96431.80
2023-03-08T19:16:59.052Z,96430.39
2023-03-08T19:19:29.755Z,96428.28
2023-03-08T19:21:57.828Z,96437.62
2023-03-08T19:24:26.701Z,96435.17
2023-03-08T19:26:59.690Z,96436.52
2023-03-08T19:29:33.324Z,96431.66
2023-03-08T19:32:06.843Z,96432.44
2023-03-08T19:34:40.962Z,96432.44
2023-03-08T19:37:09.433Z,96430.55
2023-03-08T19:39:38.684Z,96436.66
2023-03-08T19:42:13.489Z,96440.44
2023-03-08T19:44:41.862Z,96440.52
2023-03-08T19:47:10.495Z,96443.19
2023-03-08T19:49:39.701Z,96442.41
2023-03-08T19:52:09.247Z,96446.41
2023-03-08T19:54:37.114Z,96446.16
2023-03-08T19:57:05.568Z,96443.48
2023-03-08T19:59:35.255Z,96441.06
2023-03-08T20:02:05.799Z,96440.52
2023-03-08T20:04:34.730Z,96439.73
2023-03-08T20:07:04.322Z,96438.14
2023-03-08T20:09:32.924Z,96443.73
2023-03-08T20:12:00.953Z,96439.73
2023-03-08T20:14:29.722Z,96430.95
2023-03-08T20:16:58.791Z,96428.36
2023-03-08T20:19:30.561Z,96428.43
2023-03-08T20:21:58.915Z,96422.39
2023-03-08T20:24:27.083Z,96425.38
2023-03-08T20:26:55.298Z,96421.45
2023-03-08T20:29:23.224Z,96421.53
2023-03-08T20:31:51.449Z,96420.04
2023-03-08T20:34:19.342Z,96416.14
2023-03-08T20:36:47.148Z,96416.21
2023-03-08T20:39:15.064Z,96422.17
2023-03-08T20:41:43.899Z,96413.69
2023-03-08T20:44:12.001Z,96411.13
2023-03-08T20:46:39.940Z,96412.86
2023-03-08T20:49:24.635Z,96406.55
2023-03-08T20:51:53.497Z,96404.77
2023-03-08T20:54:24.345Z,96408.55
2023-03-08T20:56:52.454Z,96406.95
2023-03-08T20:59:21.993Z,96405.88
2023-03-08T21:01:51.177Z,96406.66
2023-03-08T21:04:19.971Z,96398.66
2023-03-08T21:06:51.265Z,96398.11
2023-03-08T21:09:21.045Z,96401.78
2023-03-08T21:12:10.744Z,96407.37
2023-03-08T21:14:38.998Z,96387.66
2023-03-08T21:17:08.052Z,96384.77
2023-03-08T21:19:35.895Z,96385.55
2023-03-08T21:22:06.110Z,96380.70
2023-03-08T21:24:34.290Z,96378.81
2023-03-08T21:27:02.037Z,96381.70
2023-03-08T21:29:30.601Z,96376.15
2023-03-08T21:32:00.345Z,96373.48
2023-03-08T21:34:28.917Z,96375.82
2023-03-08T21:36:57.474Z,96385.94
2023-03-08T21:39:27.502Z,96368.59
2023-03-08T21:41:58.093Z,96372.37
2023-03-08T21:44:26.007Z,96369.48
2023-03-08T21:46:55.017Z,96363.27
2023-03-08T21:49:26.530Z,96356.30
2023-03-08T21:51:56.581Z,96357.08
2023-03-08T21:54:27.017Z,96353.08
2023-03-08T21:56:54.880Z,96354.19
2023-03-08T21:59:30.858Z,96352.86
2023-03-08T22:01:59.780Z,96348.86
2023-03-08T22:04:28.810Z,96343.52
2023-03-08T22:06:57.165Z,96343.27
2023-03-08T22:09:27.600Z,96335.82
2023-03-08T22:11:57.584Z,96329.48
2023-03-08T22:14:26.438Z,96322.81
2023-03-08T22:16:55.848Z,96316.70
2023-03-08T22:19:23.693Z,96314.27
2023-03-08T22:21:51.422Z,96311.82
2023-03-08T22:24:20.442Z,96300.92
2023-03-08T22:26:48.796Z,96297.48
2023-03-08T22:29:17.499Z,96290.56
2023-03-08T22:31:45.896Z,96285.78
2023-03-08T22:34:14.193Z,96291.67
2023-03-08T22:36:42.701Z,96297.08
2023-03-08T22:39:13.519Z,96291.52
2023-03-08T22:41:42.070Z,96288.70
2023-03-08T22:44:13.600Z,96287.14
2023-03-08T22:46:42.215Z,96292.00
2023-03-08T22:49:15.475Z,96286.74
2023-03-08T22:51:43.176Z,96284.88
2023-03-08T22:54:15.555Z,96285.73
2023-03-08T22:56:44.614Z,96288.18
2023-03-08T22:59:13.257Z,96283.70
2023-03-08T23:01:41.711Z,96284.03
2023-03-08T23:04:13.986Z,96291.55
2023-03-08T23:06:42.546Z,96289.44
2023-03-08T23:09:14.340Z,96281.52
2023-03-08T23:11:43.223Z,96284.73
2023-03-08T23:14:12.318Z,96278.14
2023-03-08T23:16:43.946Z,96278.14
2023-03-08T23:19:18.598Z,96278.14
2023-03-08T23:21:47.489Z,96271.25
2023-03-08T23:24:17.942Z,96268.36
2023-03-08T23:26:48.042Z,96261.70
2023-03-08T23:29:15.764Z,96262.81
2023-03-08T23:31:46.823Z,96267.59
2023-03-08T23:34:14.807Z,96255.59
2023-03-08T23:36:48.344Z,96259.48
2023-03-08T23:39:18.479Z,96254.96
2023-03-08T23:41:46.344Z,96254.08
2023-03-08T23:44:14.842Z,96252.19
2023-03-08T23:46:44.440Z,96246.01
2023-03-08T23:49:12.632Z,96248.67
2023-03-08T23:51:40.908Z,96244.60
2023-03-08T23:54:11.337Z,96239.80
2023-03-08T23:56:40.930Z,96244.05
2023-03-08T23:59:19.434Z,96235.72
